Time;durP1;ratioP1;P1;durP2;ratioP2;P2;SDS_P1;SDS_P2;PMS_P1;PMS_P2;Temp;Humidity;BMP_temperature;BMP_pressure;BME280_temperature;BME280_humidity;BME280_pressure;Samples;Min_cycle;Max_cycle;Signal;HPM_P1;HPM_P2
2023/07/28 00:01:25;;;;;;;32.88;15.65;;;17.90;99.90;;;;;;5071101;28;20422;-84
2023/07/28 00:03:51;;;;;;;41.72;16.30;;;18.30;99.90;;;;;;5046370;28;20399;-84
2023/07/28 00:06:16;;;;;;;32.70;16.58;;;17.70;99.90;;;;;;5073463;28;20417;-84
2023/07/28 00:08:42;;;;;;;39.17;16.67;;;18.20;99.90;;;;;;5071756;28;20404;-83
2023/07/28 00:11:13;;;;;;;34.23;16.23;;;17.80;99.90;;;;;;5055709;28;20396;-83
2023/07/28 00:13:39;;;;;;;38.88;17.35;;;17.80;99.90;;;;;;5051630;28;20403;-83
2023/07/28 00:16:06;;;;;;;34.17;17.75;;;18.30;99.90;;;;;;5056896;28;20474;-83
2023/07/28 00:18:31;;;;;;;37.78;17.35;;;17.90;99.90;;;;;;5058721;28;20405;-83
2023/07/28 00:20:57;;;;;;;43.45;18.58;;;17.80;99.90;;;;;;5075013;28;20929;-83
2023/07/28 00:23:23;;;;;;;40.42;18.35;;;17.70;99.90;;;;;;5073812;28;20422;-83
2023/07/28 00:25:49;;;;;;;41.03;18.57;;;18.10;99.90;;;;;;5057411;28;20429;-83
2023/07/28 00:28:14;;;;;;;39.47;18.23;;;17.80;99.90;;;;;;5038121;28;20411;-84
2023/07/28 00:30:40;;;;;;;45.38;20.48;;;17.70;99.90;;;;;;5055116;28;20430;-83
2023/07/28 00:33:06;;;;;;;50.60;20.17;;;18.20;99.90;;;;;;5060531;28;20427;-83
2023/07/28 00:35:32;;;;;;;46.87;20.07;;;17.80;99.90;;;;;;5067919;28;20515;-83
2023/07/28 00:37:58;;;;;;;46.05;20.30;;;17.40;99.90;;;;;;5057615;28;20418;-84
2023/07/28 00:40:24;;;;;;;48.20;21.15;;;17.90;99.90;;;;;;5073435;28;20437;-83
2023/07/28 00:42:50;;;;;;;51.33;21.33;;;18.40;99.90;;;;;;5062746;28;20461;-85
2023/07/28 00:45:15;;;;;;;49.15;21.15;;;18.00;99.90;;;;;;5071124;28;20436;-83
2023/07/28 00:47:42;;;;;;;48.55;20.33;;;17.80;99.90;;;;;;5039078;28;20487;-84
2023/07/28 00:50:09;;;;;;;52.75;21.08;;;17.80;99.90;;;;;;5073303;28;20434;-83
2023/07/28 00:52:36;;;;;;;57.78;21.63;;;18.10;99.90;;;;;;5037585;28;20411;-83
2023/07/28 00:55:02;;;;;;;57.80;22.35;;;18.30;99.90;;;;;;5063478;28;20425;-83
2023/07/28 00:57:27;;;;;;;55.88;22.88;;;18.40;99.90;;;;;;5073725;28;20417;-83
2023/07/28 00:59:53;;;;;;;55.90;22.65;;;17.70;99.90;;;;;;5073077;28;20422;-81
2023/07/28 01:02:20;;;;;;;64.68;24.38;;;17.60;99.90;;;;;;5052968;28;20422;-81
2023/07/28 01:04:47;;;;;;;58.53;23.30;;;18.10;99.90;;;;;;5056399;28;20415;-84
2023/07/28 01:07:47;;;;;;;56.67;23.20;;;17.80;99.90;;;;;;5049389;28;20472;-84
2023/07/28 01:10:28;;;;;;;64.63;23.67;;;17.80;99.90;;;;;;5073595;28;20398;-84
2023/07/28 01:12:53;;;;;;;63.88;24.52;;;18.10;99.90;;;;;;5054326;28;20422;-84
2023/07/28 01:15:19;;;;;;;59.65;23.10;;;18.30;99.90;;;;;;5061862;28;20429;-84
2023/07/28 01:17:45;;;;;;;65.38;24.10;;;17.40;99.90;;;;;;5059342;28;20423;-83
2023/07/28 01:20:11;;;;;;;64.38;23.45;;;18.00;99.90;;;;;;5072056;28;20948;-84
2023/07/28 01:22:49;;;;;;;55.10;22.45;;;18.00;99.90;;;;;;5053809;28;20432;-83
2023/07/28 01:25:47;;;;;;;58.03;23.23;;;18.00;99.90;;;;;;5076200;28;20428;-83
2023/07/28 01:28:14;;;;;;;58.13;22.00;;;18.20;99.90;;;;;;5059267;28;20415;-84
2023/07/28 01:30:40;;;;;;;64.18;22.50;;;18.50;99.90;;;;;;5053598;28;20410;-83
2023/07/28 01:33:09;;;;;;;58.05;21.52;;;18.00;99.90;;;;;;5066820;28;20423;-84
2023/07/28 01:35:38;;;;;;;47.80;22.13;;;18.40;99.90;;;;;;5073006;28;20488;-83
2023/07/28 01:38:04;;;;;;;60.13;23.08;;;17.80;99.90;;;;;;5054031;28;20424;-84
2023/07/28 01:40:30;;;;;;;55.75;23.77;;;17.70;99.90;;;;;;5073783;28;20471;-84
2023/07/28 01:42:56;;;;;;;55.83;22.83;;;17.50;99.90;;;;;;5036404;28;20421;-83
2023/07/28 01:45:21;;;;;;;56.28;22.48;;;18.10;99.90;;;;;;5071066;28;20425;-84
2023/07/28 01:47:47;;;;;;;55.65;21.65;;;18.40;99.90;;;;;;5055746;28;20539;-81
2023/07/28 01:50:13;;;;;;;54.13;21.93;;;17.90;99.90;;;;;;5057515;28;20442;-81
2023/07/28 01:52:38;;;;;;;47.63;21.10;;;18.10;99.90;;;;;;5070884;28;20424;-81
2023/07/28 01:55:06;;;;;;;50.92;21.02;;;18.30;99.90;;;;;;5030947;28;20801;-81
2023/07/28 01:57:35;;;;;;;48.30;20.80;;;17.60;99.90;;;;;;5069136;28;20505;-81
2023/07/28 02:00:03;;;;;;;52.37;20.83;;;18.30;99.90;;;;;;5034211;28;20446;-81
2023/07/28 02:02:29;;;;;;;51.03;20.93;;;18.10;99.90;;;;;;5035530;28;20443;-81
2023/07/28 02:04:54;;;;;;;52.20;20.73;;;17.70;99.90;;;;;;5031371;28;20463;-81
2023/07/28 02:07:20;;;;;;;57.60;21.40;;;18.00;99.90;;;;;;5038474;28;20428;-81
2023/07/28 02:09:46;;;;;;;45.85;20.60;;;17.70;99.90;;;;;;5054274;28;20458;-81
2023/07/28 02:12:11;;;;;;;55.78;22.35;;;18.30;99.90;;;;;;5071854;28;20413;-81
2023/07/28 02:14:37;;;;;;;47.63;21.37;;;17.80;99.90;;;;;;5034897;28;20418;-81
2023/07/28 02:17:03;;;;;;;56.00;21.08;;;18.20;99.90;;;;;;5050618;28;20426;-81
2023/07/28 02:19:28;;;;;;;54.60;21.50;;;18.20;99.90;;;;;;5070006;28;20941;-81
2023/07/28 02:21:54;;;;;;;50.33;20.58;;;17.90;99.90;;;;;;5068517;28;20815;-81
2023/07/28 02:24:20;;;;;;;53.07;20.77;;;17.40;99.90;;;;;;5051686;28;20514;-81
2023/07/28 02:26:45;;;;;;;46.67;19.77;;;18.30;99.90;;;;;;5038954;28;20450;-81
2023/07/28 02:29:11;;;;;;;46.47;19.75;;;18.30;99.90;;;;;;5071928;28;20831;-81
2023/07/28 02:31:37;;;;;;;48.50;19.90;;;18.30;99.90;;;;;;5040160;28;20434;-81
2023/07/28 02:34:02;;;;;;;53.87;19.50;;;18.20;99.90;;;;;;5041990;28;20456;-81
2023/07/28 02:36:28;;;;;;;52.77;19.67;;;18.30;99.90;;;;;;5048054;28;20419;-81
2023/07/28 02:38:53;;;;;;;41.85;18.02;;;17.30;99.90;;;;;;5039308;28;20897;-81
2023/07/28 02:41:19;;;;;;;50.93;17.83;;;17.70;99.90;;;;;;5050236;28;20447;-81
2023/07/28 02:43:45;;;;;;;41.90;17.73;;;18.10;99.90;;;;;;5056821;28;20483;-81
2023/07/28 02:46:11;;;;;;;39.10;18.10;;;17.70;99.90;;;;;;5069052;28;20938;-81
2023/07/28 02:48:36;;;;;;;41.92;17.38;;;18.40;99.90;;;;;;5035384;28;20415;-81
2023/07/28 02:51:02;;;;;;;35.97;16.70;;;18.00;99.90;;;;;;5026380;28;20428;-81
2023/07/28 02:53:28;;;;;;;39.10;16.60;;;17.80;99.90;;;;;;5045587;28;20427;-80
2023/07/28 02:55:53;;;;;;;41.67;17.10;;;18.00;99.90;;;;;;5070013;28;20418;-81
2023/07/28 02:58:19;;;;;;;41.90;16.00;;;17.90;99.90;;;;;;5066538;28;20422;-80
2023/07/28 03:00:46;;;;;;;42.95;17.08;;;18.30;99.90;;;;;;5076752;28;20413;-81
2023/07/28 03:03:12;;;;;;;39.28;15.80;;;17.80;99.90;;;;;;5050473;28;20421;-81
2023/07/28 03:05:38;;;;;;;36.50;15.13;;;17.50;99.90;;;;;;5045978;28;20413;-81
2023/07/28 03:08:05;;;;;;;40.15;15.63;;;18.20;99.90;;;;;;5054256;28;20406;-80
2023/07/28 03:10:30;;;;;;;36.47;15.10;;;17.90;99.90;;;;;;5042663;28;20502;-81
2023/07/28 03:12:56;;;;;;;34.13;14.73;;;18.00;99.90;;;;;;5055599;28;20483;-80
2023/07/28 03:15:22;;;;;;;34.43;14.87;;;18.10;99.90;;;;;;5059192;28;20435;-81
2023/07/28 03:17:49;;;;;;;34.33;14.38;;;17.70;99.90;;;;;;5054906;28;20940;-81
2023/07/28 03:20:15;;;;;;;37.95;14.20;;;17.70;99.90;;;;;;5071225;28;20834;-81
2023/07/28 03:22:40;;;;;;;40.95;14.50;;;17.90;99.90;;;;;;5038996;28;20461;-81
2023/07/28 03:25:06;;;;;;;44.22;14.82;;;18.20;99.90;;;;;;5058051;28;20457;-81
2023/07/28 03:27:32;;;;;;;36.15;15.02;;;18.30;99.90;;;;;;5075515;28;20836;-81
2023/07/28 03:29:58;;;;;;;35.38;14.98;;;17.80;99.90;;;;;;5069366;28;20455;-81
2023/07/28 03:32:24;;;;;;;36.87;15.43;;;17.60;99.90;;;;;;5024845;28;20429;-81
2023/07/28 03:34:49;;;;;;;40.50;15.17;;;18.20;99.90;;;;;;5059484;28;20424;-81
2023/07/28 03:37:15;;;;;;;33.90;16.17;;;18.10;99.90;;;;;;5048305;28;20518;-81
2023/07/28 03:39:41;;;;;;;33.70;15.50;;;17.50;99.90;;;;;;5058887;28;20426;-81
2023/07/28 03:42:07;;;;;;;38.33;16.27;;;17.60;99.90;;;;;;5034810;28;20494;-80
2023/07/28 03:44:33;;;;;;;35.10;15.05;;;17.80;99.90;;;;;;5068122;28;20497;-80
2023/07/28 03:46:59;;;;;;;40.05;15.90;;;17.90;99.90;;;;;;5071957;28;20415;-79
2023/07/28 03:49:25;;;;;;;33.67;14.93;;;18.10;99.90;;;;;;5071095;28;20482;-80
2023/07/28 03:51:51;;;;;;;42.63;14.85;;;17.70;99.90;;;;;;5073417;28;20777;-80
2023/07/28 03:54:16;;;;;;;32.88;14.70;;;17.30;99.90;;;;;;5040336;28;20438;-81
2023/07/28 03:56:42;;;;;;;32.63;14.43;;;17.90;99.90;;;;;;5058560;28;20414;-81
2023/07/28 03:59:10;;;;;;;32.63;13.70;;;17.60;99.90;;;;;;5058670;28;20430;-81
2023/07/28 04:01:36;;;;;;;36.33;14.07;;;17.60;99.90;;;;;;5034836;28;20498;-81
2023/07/28 04:04:03;;;;;;;30.17;14.20;;;18.00;99.90;;;;;;5063001;28;21209;-80
2023/07/28 04:06:46;;;;;;;37.73;14.00;;;18.20;99.90;;;;;;5072976;28;20461;-80
2023/07/28 04:09:14;;;;;;;29.65;13.50;;;17.50;99.90;;;;;;5022608;28;20541;-80
2023/07/28 04:11:40;;;;;;;28.88;12.93;;;18.30;99.90;;;;;;5070980;28;20417;-80
2023/07/28 04:14:06;;;;;;;34.85;14.02;;;18.10;99.90;;;;;;5035268;28;20763;-79
2023/07/28 04:16:32;;;;;;;28.88;13.10;;;17.70;99.90;;;;;;5046542;28;20419;-80
2023/07/28 04:18:58;;;;;;;30.30;13.45;;;17.60;99.90;;;;;;5052910;28;20475;-80
2023/07/28 04:21:24;;;;;;;28.20;12.60;;;17.90;99.90;;;;;;5073454;28;20505;-80
2023/07/28 04:23:50;;;;;;;29.20;13.13;;;18.30;99.90;;;;;;5032403;28;20418;-80
2023/07/28 04:26:17;;;;;;;30.60;13.00;;;18.40;99.90;;;;;;5049311;28;20418;-80
2023/07/28 04:28:43;;;;;;;35.00;12.65;;;18.40;99.90;;;;;;5056570;28;20418;-81
2023/07/28 04:31:09;;;;;;;32.10;12.75;;;17.80;99.90;;;;;;5068368;28;20419;-82
2023/07/28 04:33:34;;;;;;;27.05;12.15;;;17.90;99.90;;;;;;5051918;28;20418;-82
2023/07/28 04:36:03;;;;;;;34.40;13.15;;;17.90;99.90;;;;;;5071357;28;20433;-81
2023/07/28 04:38:29;;;;;;;26.67;12.88;;;17.90;99.90;;;;;;5064778;28;20464;-82
2023/07/28 04:40:55;;;;;;;33.80;13.00;;;18.50;99.90;;;;;;5058868;28;20425;-82
2023/07/28 04:43:20;;;;;;;36.53;13.10;;;18.30;99.90;;;;;;5053360;28;20509;-82
2023/07/28 04:45:46;;;;;;;32.60;13.10;;;17.80;99.90;;;;;;5057931;28;20394;-82
2023/07/28 04:48:12;;;;;;;36.45;13.18;;;18.20;99.90;;;;;;5045295;28;20415;-82
2023/07/28 04:50:37;;;;;;;31.30;13.00;;;17.70;99.90;;;;;;5065080;28;20415;-82
2023/07/28 04:53:03;;;;;;;29.03;12.87;;;18.20;99.90;;;;;;5047287;28;20501;-83
2023/07/28 04:55:29;;;;;;;36.20;13.57;;;18.20;99.90;;;;;;5038711;28;20427;-83
2023/07/28 04:57:55;;;;;;;36.25;12.85;;;18.10;99.90;;;;;;5044551;28;20422;-83
2023/07/28 05:00:21;;;;;;;28.60;12.27;;;18.10;99.90;;;;;;5051984;28;20453;-82
2023/07/28 05:02:48;;;;;;;27.80;12.32;;;17.70;99.90;;;;;;5078081;28;20414;-82
2023/07/28 05:05:13;;;;;;;29.42;12.68;;;18.00;99.90;;;;;;5057006;28;20402;-83
2023/07/28 05:07:39;;;;;;;27.90;12.93;;;18.00;99.90;;;;;;5050343;28;20485;-82
2023/07/28 05:10:05;;;;;;;29.93;13.17;;;17.90;99.90;;;;;;5057472;28;20443;-83
2023/07/28 05:12:31;;;;;;;26.02;12.75;;;18.40;99.90;;;;;;5073893;28;20418;-83
2023/07/28 05:14:56;;;;;;;32.47;13.20;;;18.00;99.90;;;;;;5052714;28;20407;-82
2023/07/28 05:17:22;;;;;;;31.90;13.07;;;18.20;99.90;;;;;;5073646;28;20410;-83
2023/07/28 05:19:49;;;;;;;28.40;12.87;;;18.00;99.90;;;;;;5054379;28;20929;-83
2023/07/28 05:22:15;;;;;;;26.67;12.90;;;18.00;99.90;;;;;;5048851;28;20413;-83
2023/07/28 05:24:41;;;;;;;28.25;12.50;;;18.30;99.90;;;;;;5062042;28;20433;-82
2023/07/28 05:27:07;;;;;;;24.80;12.60;;;18.30;99.90;;;;;;5058607;28;20415;-83
2023/07/28 05:29:32;;;;;;;24.20;11.97;;;17.80;99.90;;;;;;5042689;28;20421;-83
2023/07/28 05:31:59;;;;;;;25.30;12.90;;;18.20;99.90;;;;;;5068777;28;20906;-79
2023/07/28 05:34:25;;;;;;;22.10;11.45;;;18.20;99.90;;;;;;5067120;28;20431;-82
2023/07/28 05:36:51;;;;;;;22.20;11.75;;;18.00;99.90;;;;;;5048954;28;20421;-83
2023/07/28 05:39:16;;;;;;;20.45;10.90;;;18.30;99.90;;;;;;5065321;28;20423;-82
2023/07/28 05:41:42;;;;;;;18.73;10.87;;;18.00;99.90;;;;;;5073475;28;20773;-82
2023/07/28 05:44:08;;;;;;;18.58;11.23;;;18.20;99.90;;;;;;5036332;28;20469;-82
2023/07/28 05:46:33;;;;;;;18.27;10.50;;;18.20;99.90;;;;;;5034368;28;20414;-82
2023/07/28 05:49:00;;;;;;;19.73;10.75;;;18.10;99.90;;;;;;5054422;28;20417;-82
2023/07/28 05:51:26;;;;;;;20.92;10.90;;;18.20;99.90;;;;;;5040869;28;20417;-82
2023/07/28 05:53:51;;;;;;;21.55;11.00;;;18.50;99.90;;;;;;5056786;28;20412;-82
2023/07/28 05:56:18;;;;;;;17.23;10.00;;;18.40;99.90;;;;;;5046823;28;20410;-82
2023/07/28 05:58:45;;;;;;;19.92;9.98;;;18.50;99.90;;;;;;5041958;28;20423;-82
2023/07/28 06:01:11;;;;;;;18.77;10.20;;;18.50;99.90;;;;;;5056512;28;20425;-82
2023/07/28 06:03:37;;;;;;;16.10;9.70;;;18.40;99.90;;;;;;5070836;28;20418;-81
2023/07/28 06:06:02;;;;;;;17.30;9.60;;;18.30;99.90;;;;;;5069083;28;20442;-81
2023/07/28 06:08:28;;;;;;;16.85;9.95;;;18.30;99.90;;;;;;5068995;28;20432;-81
2023/07/28 06:10:54;;;;;;;14.88;9.52;;;18.40;99.90;;;;;;5063239;28;20449;-81
2023/07/28 06:13:20;;;;;;;15.15;9.40;;;18.50;99.90;;;;;;5077437;28;20410;-81
2023/07/28 06:15:47;;;;;;;16.42;10.18;;;18.10;99.90;;;;;;5061718;28;20472;-81
2023/07/28 06:18:13;;;;;;;12.40;9.25;;;18.30;99.90;;;;;;5047359;28;21071;-81
2023/07/28 06:20:42;;;;;;;12.73;9.18;;;18.40;99.90;;;;;;5049616;28;20800;-81
2023/07/28 06:23:08;;;;;;;14.13;9.15;;;18.40;99.90;;;;;;5062487;28;20414;-81
2023/07/28 06:25:34;;;;;;;11.57;8.80;;;18.30;99.90;;;;;;5069211;28;21248;-81
2023/07/28 06:28:00;;;;;;;13.65;9.48;;;18.30;99.90;;;;;;5037251;28;21046;-81
2023/07/28 06:30:26;;;;;;;11.50;9.32;;;18.30;99.90;;;;;;5054581;28;21213;-81
2023/07/28 06:32:51;;;;;;;12.48;9.48;;;18.30;99.90;;;;;;5074750;28;20418;-81
2023/07/28 06:35:17;;;;;;;14.25;9.13;;;18.60;99.90;;;;;;5066953;28;20419;-81
2023/07/28 06:37:43;;;;;;;10.25;8.80;;;18.20;99.90;;;;;;5036668;28;20420;-82
2023/07/28 06:40:10;;;;;;;10.17;8.10;;;18.40;99.90;;;;;;5055864;28;20557;-83
2023/07/28 06:42:36;;;;;;;12.45;8.52;;;18.20;99.90;;;;;;5051324;28;20417;-87
2023/07/28 06:45:03;;;;;;;12.33;8.03;;;18.10;99.90;;;;;;5053834;28;20422;-86
2023/07/28 06:47:29;;;;;;;9.95;7.68;;;18.20;99.90;;;;;;5072536;28;20417;-87
2023/07/28 06:49:55;;;;;;;9.55;6.78;;;18.40;99.90;;;;;;5031405;28;20982;-85
2023/07/28 06:52:21;;;;;;;9.10;6.78;;;18.20;99.90;;;;;;5051591;28;20495;-84
2023/07/28 06:54:49;;;;;;;8.88;6.47;;;18.40;99.90;;;;;;5061669;28;20491;-85
2023/07/28 06:57:15;;;;;;;8.77;6.15;;;18.50;99.90;;;;;;5046024;28;20810;-83
2023/07/28 06:59:42;;;;;;;11.65;6.55;;;18.90;99.90;;;;;;5071375;28;20426;-83
2023/07/28 07:02:08;;;;;;;9.63;6.40;;;18.80;99.90;;;;;;5055795;28;20429;-83
2023/07/28 07:04:34;;;;;;;8.05;5.85;;;18.80;99.90;;;;;;5072095;28;20415;-83
2023/07/28 07:07:00;;;;;;;10.40;5.70;;;18.90;99.90;;;;;;5058098;28;20418;-83
2023/07/28 07:09:26;;;;;;;7.78;5.68;;;18.90;99.90;;;;;;5043762;28;20498;-83
2023/07/28 07:11:51;;;;;;;7.80;6.00;;;19.00;99.90;;;;;;5064774;28;20422;-82
2023/07/28 07:14:17;;;;;;;7.47;5.70;;;18.70;99.90;;;;;;5069652;28;20419;-82
2023/07/28 07:16:43;;;;;;;12.05;6.30;;;18.70;99.90;;;;;;5063404;28;20433;-84
2023/07/28 07:19:09;;;;;;;9.80;6.38;;;18.80;99.90;;;;;;5046054;28;20477;-83
2023/07/28 07:21:34;;;;;;;9.43;5.88;;;18.90;99.90;;;;;;5044406;28;20508;-84
2023/07/28 07:24:02;;;;;;;7.00;5.30;;;19.10;99.90;;;;;;5050146;28;20426;-82
2023/07/28 07:26:28;;;;;;;6.93;5.68;;;19.10;99.90;;;;;;5045749;28;20422;-80
2023/07/28 07:28:53;;;;;;;7.07;5.80;;;19.00;99.90;;;;;;5065097;28;20481;-84
2023/07/28 07:31:19;;;;;;;6.20;5.53;;;19.00;99.90;;;;;;5041633;28;20494;-83
2023/07/28 07:33:45;;;;;;;7.00;5.70;;;19.10;99.90;;;;;;5045335;28;20431;-84
2023/07/28 07:36:19;;;;;;;7.82;5.40;;;19.20;99.90;;;;;;5023908;28;20413;-85
2023/07/28 07:38:46;;;;;;;10.65;6.13;;;19.30;99.90;;;;;;5050484;28;20435;-85
2023/07/28 07:41:21;;;;;;;7.85;5.57;;;19.30;99.90;;;;;;5069014;28;20418;-83
2023/07/28 07:43:52;;;;;;;6.80;5.22;;;19.40;99.90;;;;;;5049933;28;20760;-84
2023/07/28 07:46:19;;;;;;;7.25;5.03;;;19.30;99.90;;;;;;5072493;28;20421;-83
2023/07/28 07:48:45;;;;;;;6.03;5.00;;;19.60;99.90;;;;;;5072344;28;20414;-83
2023/07/28 07:51:15;;;;;;;6.45;4.55;;;19.40;99.90;;;;;;5047838;28;20416;-84
2023/07/28 07:53:40;;;;;;;7.75;5.28;;;19.50;99.90;;;;;;5047682;28;20423;-83
2023/07/28 07:56:09;;;;;;;6.45;4.88;;;19.60;99.90;;;;;;5025790;28;20428;-83
2023/07/28 07:58:36;;;;;;;7.20;4.57;;;20.10;99.90;;;;;;5062409;28;20493;-85
2023/07/28 08:01:02;;;;;;;6.78;4.22;;;19.90;99.90;;;;;;5061058;28;20770;-82
2023/07/28 08:03:28;;;;;;;6.78;4.05;;;20.20;99.90;;;;;;5068903;28;20420;-81
2023/07/28 08:05:54;;;;;;;6.40;3.87;;;20.00;99.90;;;;;;5045846;28;20916;-83
2023/07/28 08:08:20;;;;;;;7.63;4.07;;;19.70;99.90;;;;;;5066888;28;21083;-84
2023/07/28 08:10:50;;;;;;;7.30;4.20;;;20.20;99.90;;;;;;5072307;28;20426;-83
2023/07/28 08:13:16;;;;;;;6.22;4.07;;;20.00;99.90;;;;;;5071554;28;20438;-84
2023/07/28 08:15:46;;;;;;;10.23;4.50;;;20.10;99.90;;;;;;5059192;28;20398;-83
2023/07/28 08:18:12;;;;;;;12.05;3.80;;;20.20;99.90;;;;;;5052243;28;20418;-83
2023/07/28 08:20:38;;;;;;;9.07;4.47;;;20.00;99.90;;;;;;5068397;28;20783;-83
2023/07/28 08:23:04;;;;;;;7.00;4.30;;;20.30;99.90;;;;;;5043905;28;20415;-83
2023/07/28 08:25:34;;;;;;;6.60;4.20;;;20.60;99.90;;;;;;5056190;28;20444;-83
2023/07/28 08:28:00;;;;;;;6.47;3.83;;;23.00;99.90;;;;;;5062273;28;20424;-83
2023/07/28 08:30:26;;;;;;;8.00;4.17;;;21.00;99.90;;;;;;5096146;28;20492;-83
2023/07/28 08:32:52;;;;;;;8.07;4.00;;;21.30;99.90;;;;;;5060897;28;20418;-82
2023/07/28 08:35:18;;;;;;;5.40;3.30;;;21.30;99.90;;;;;;5090855;28;20402;-83
2023/07/28 08:37:48;;;;;;;7.78;3.33;;;21.10;99.90;;;;;;5055937;28;20415;-83
2023/07/28 08:40:19;;;;;;;5.77;3.50;;;23.20;99.90;;;;;;5053652;28;20422;-83
2023/07/28 08:42:45;;;;;;;6.45;3.65;;;20.80;99.90;;;;;;5022060;28;20466;-83
2023/07/28 08:45:13;;;;;;;7.70;3.90;;;21.10;99.90;;;;;;5067423;28;20913;-83
2023/07/28 08:47:38;;;;;;;7.65;3.90;;;21.50;99.90;;;;;;5053309;28;20410;-83
2023/07/28 08:50:05;;;;;;;6.38;3.85;;;21.30;99.90;;;;;;5036624;28;20481;-83
2023/07/28 08:52:32;;;;;;;6.78;3.70;;;21.50;99.90;;;;;;5057847;28;20406;-82
2023/07/28 08:54:58;;;;;;;5.05;3.33;;;21.90;99.90;;;;;;5063106;28;20427;-82
2023/07/28 08:57:24;;;;;;;7.37;3.83;;;21.70;99.90;;;;;;5043273;28;20432;-83
2023/07/28 08:59:50;;;;;;;6.70;3.50;;;21.60;99.90;;;;;;5040486;28;20420;-84
2023/07/28 09:02:18;;;;;;;4.22;2.85;;;21.90;99.90;;;;;;5041464;28;20490;-84
2023/07/28 09:04:45;;;;;;;12.32;3.63;;;21.80;99.90;;;;;;5053877;28;20887;-84
2023/07/28 09:07:12;;;;;;;6.30;3.15;;;22.30;99.90;;;;;;5049445;28;20492;-82
2023/07/28 09:09:38;;;;;;;6.10;3.33;;;22.60;99.90;;;;;;5082207;28;20484;-83
2023/07/28 09:12:04;;;;;;;8.90;3.50;;;22.30;99.90;;;;;;5051613;28;20422;-83
2023/07/28 09:14:30;;;;;;;6.68;3.33;;;22.60;99.90;;;;;;5030619;28;20429;-83
2023/07/28 09:17:07;;;;;;;4.53;3.05;;;22.50;99.90;;;;;;5050547;28;20512;-82
2023/07/28 09:19:33;;;;;;;7.38;3.40;;;22.20;99.90;;;;;;5052212;28;20478;-82
2023/07/28 09:22:04;;;;;;;6.00;2.88;;;22.30;99.90;;;;;;5033867;28;22197;-83
2023/07/28 09:24:32;;;;;;;6.93;2.97;;;22.50;99.90;;;;;;5058102;28;20763;-82
2023/07/28 09:26:58;;;;;;;4.72;2.60;;;22.90;99.90;;;;;;5053729;28;20777;-82
2023/07/28 09:29:26;;;;;;;5.72;2.78;;;22.60;99.90;;;;;;5044226;28;20848;-82
2023/07/28 09:31:52;;;;;;;5.68;2.95;;;22.60;99.90;;;;;;5056182;28;20459;-83
2023/07/28 09:34:28;;;;;;;5.40;2.95;;;22.50;99.90;;;;;;5064443;28;20457;-82
2023/07/28 09:37:00;;;;;;;7.57;3.47;;;22.50;99.90;;;;;;5053437;28;20416;-83
2023/07/28 09:39:36;;;;;;;5.60;3.22;;;22.70;99.90;;;;;;5069564;28;20414;-83
2023/07/28 09:42:02;;;;;;;7.05;3.17;;;22.80;99.90;;;;;;5070857;28;20422;-83
2023/07/28 09:44:28;;;;;;;7.15;3.28;;;22.90;99.90;;;;;;5056405;28;20422;-83
2023/07/28 09:47:01;;;;;;;7.13;3.33;;;24.30;99.90;;;;;;5063799;28;20421;-83
2023/07/28 09:49:35;;;;;;;6.57;3.40;;;23.00;99.90;;;;;;5036499;28;20738;-83
2023/07/28 09:52:06;;;;;;;6.30;3.53;;;23.30;99.90;;;;;;5069440;28;20952;-83
2023/07/28 09:54:38;;;;;;;6.82;3.47;;;23.00;99.90;;;;;;5054222;28;20486;-83
2023/07/28 09:57:08;;;;;;;7.05;3.63;;;23.20;99.90;;;;;;5056502;28;20412;-83
2023/07/28 09:59:45;;;;;;;5.63;3.53;;;23.10;99.90;;;;;;5055256;28;20459;-83
2023/07/28 10:02:11;;;;;;;9.27;4.05;;;23.10;99.90;;;;;;5033165;28;20498;-82
2023/07/28 10:04:38;;;;;;;7.33;4.03;;;22.80;99.90;;;;;;5045376;28;20481;-83
2023/07/28 10:07:08;;;;;;;8.70;4.60;;;23.20;99.90;;;;;;5054335;28;21038;-83
2023/07/28 10:09:34;;;;;;;8.65;3.70;;;23.20;99.90;;;;;;5071253;28;20892;-82
2023/07/28 10:12:03;;;;;;;6.07;3.50;;;23.50;99.90;;;;;;5050195;28;20963;-83
2023/07/28 10:14:31;;;;;;;6.23;3.50;;;23.40;99.90;;;;;;5044843;28;20415;-83
2023/07/28 10:17:01;;;;;;;7.57;3.88;;;23.00;99.90;;;;;;5051250;28;20760;-81
2023/07/28 10:19:28;;;;;;;5.97;3.95;;;23.10;99.90;;;;;;5053280;28;20431;-81
2023/07/28 10:22:07;;;;;;;8.90;4.05;;;23.40;99.90;;;;;;5067319;28;20422;-82
2023/07/28 10:25:00;;;;;;;7.18;4.05;;;23.70;99.90;;;;;;5037575;28;20427;-81
2023/07/28 10:27:39;;;;;;;6.37;4.10;;;23.90;99.90;;;;;;5031047;28;20429;-81
2023/07/28 10:30:11;;;;;;;7.05;3.67;;;24.00;99.90;;;;;;5047390;28;20453;-81
2023/07/28 10:32:39;;;;;;;6.47;4.03;;;24.00;99.90;;;;;;5037862;28;20811;-81
2023/07/28 10:35:21;;;;;;;6.65;4.05;;;24.10;99.90;;;;;;5040385;28;20480;-82
2023/07/28 10:37:47;;;;;;;7.60;3.45;;;24.10;99.90;;;;;;5054996;28;20503;-81
2023/07/28 10:40:34;;;;;;;7.53;3.78;;;23.80;99.90;;;;;;5048674;28;20503;-81
2023/07/28 10:43:01;;;;;;;5.23;3.30;;;24.10;99.90;;;;;;5063014;28;20481;-81
2023/07/28 10:45:29;;;;;;;6.27;4.07;;;24.40;99.90;;;;;;5036418;28;20822;-81
2023/07/28 10:47:57;;;;;;;5.60;3.72;;;24.60;99.90;;;;;;5044587;28;20421;-81
2023/07/28 10:50:24;;;;;;;7.75;3.75;;;24.60;99.90;;;;;;5064435;28;20451;-81
2023/07/28 10:52:50;;;;;;;6.10;3.00;;;24.50;99.90;;;;;;5070676;28;20467;-81
2023/07/28 10:55:21;;;;;;;4.15;2.90;;;24.30;99.90;;;;;;5053702;28;20421;-81
2023/07/28 10:57:48;;;;;;;7.30;3.60;;;24.10;99.90;;;;;;5057247;28;20426;-81
2023/07/28 11:00:16;;;;;;;6.10;3.60;;;24.20;99.90;;;;;;5036413;28;20434;-81
2023/07/28 11:02:44;;;;;;;6.43;3.70;;;23.70;99.90;;;;;;5051906;28;20414;-81
2023/07/28 11:05:23;;;;;;;8.53;3.70;;;23.60;99.90;;;;;;5051875;28;20411;-81
2023/07/28 11:07:51;;;;;;;6.80;3.58;;;23.80;99.90;;;;;;5071492;28;20449;-81
2023/07/28 11:10:18;;;;;;;7.63;3.20;;;23.70;99.90;;;;;;5054739;28;20443;-81
2023/07/28 11:12:46;;;;;;;6.30;2.80;;;23.90;99.90;;;;;;5074303;28;20471;-81
2023/07/28 11:15:13;;;;;;;4.80;2.65;;;24.00;99.90;;;;;;5059407;28;20431;-83
2023/07/28 11:17:44;;;;;;;4.60;3.17;;;23.90;99.90;;;;;;5060908;28;20490;-83
2023/07/28 11:20:24;;;;;;;6.83;3.43;;;23.90;99.90;;;;;;5073726;28;20428;-82
2023/07/28 11:22:54;;;;;;;5.43;3.33;;;23.80;99.90;;;;;;5061334;28;20398;-82
2023/07/28 11:25:23;;;;;;;7.77;3.00;;;23.60;99.90;;;;;;5073104;28;20426;-82
2023/07/28 11:27:50;;;;;;;5.90;3.10;;;23.50;99.90;;;;;;5043412;28;20778;-82
2023/07/28 11:30:17;;;;;;;5.65;3.72;;;23.40;99.90;;;;;;5053499;28;20982;-81
2023/07/28 11:32:48;;;;;;;9.05;3.30;;;23.40;99.90;;;;;;5073732;28;20418;-82
2023/07/28 11:35:16;;;;;;;7.53;3.42;;;23.60;99.90;;;;;;5042953;28;20511;-82
2023/07/28 11:37:43;;;;;;;7.35;3.22;;;23.60;99.90;;;;;;5066884;28;20419;-81
2023/07/28 11:40:13;;;;;;;6.63;3.00;;;23.80;99.90;;;;;;5070292;28;20917;-82
2023/07/28 11:42:53;;;;;;;5.95;3.70;;;23.80;99.90;;;;;;5074722;28;20422;-82
2023/07/28 11:45:20;;;;;;;5.95;3.40;;;24.00;99.90;;;;;;5038530;28;20416;-81
2023/07/28 11:48:03;;;;;;;5.85;3.10;;;24.00;99.90;;;;;;5058976;28;20401;-81
2023/07/28 11:50:41;;;;;;;5.60;3.25;;;23.90;99.90;;;;;;5057250;28;20418;-82
2023/07/28 11:53:09;;;;;;;5.45;3.40;;;23.90;99.90;;;;;;5049412;28;20414;-82
2023/07/28 11:55:36;;;;;;;5.50;3.67;;;23.70;99.90;;;;;;5069895;28;20421;-83
2023/07/28 11:58:04;;;;;;;5.63;3.30;;;23.70;99.90;;;;;;5071464;28;20470;-82
2023/07/28 12:00:34;;;;;;;5.90;3.22;;;23.80;99.90;;;;;;5068000;28;20421;-82
2023/07/28 12:03:12;;;;;;;7.53;3.30;;;24.10;99.90;;;;;;5060887;28;20447;-82
2023/07/28 12:05:58;;;;;;;5.87;3.50;;;24.30;99.90;;;;;;5058385;28;20436;-81
2023/07/28 12:08:39;;;;;;;7.87;3.40;;;24.30;99.90;;;;;;5066777;28;20491;-81
2023/07/28 12:11:06;;;;;;;6.38;3.17;;;24.20;99.90;;;;;;5060695;28;20424;-82
2023/07/28 12:13:32;;;;;;;7.27;3.77;;;24.20;99.90;;;;;;5056036;28;20436;-82
2023/07/28 12:15:57;;;;;;;5.23;3.20;;;24.20;99.90;;;;;;5058533;28;20906;-81
2023/07/28 12:18:30;;;;;;;6.85;3.17;;;24.10;99.90;;;;;;5070498;28;20419;-81
2023/07/28 12:20:55;;;;;;;6.63;3.20;;;24.20;99.90;;;;;;5053752;28;20512;-81
2023/07/28 12:23:22;;;;;;;5.05;3.08;;;24.20;99.90;;;;;;5057208;28;20841;-81
2023/07/28 12:25:50;;;;;;;5.88;2.58;;;24.00;99.90;;;;;;5074577;28;20398;-81
2023/07/28 12:28:16;;;;;;;4.43;2.50;;;24.00;99.90;;;;;;5073889;28;20843;-81
2023/07/28 12:30:43;;;;;;;4.90;2.35;;;24.00;99.90;;;;;;5042970;28;20452;-82
2023/07/28 12:33:09;;;;;;;5.43;2.75;;;24.20;99.90;;;;;;5038308;28;20443;-82
2023/07/28 12:35:35;;;;;;;5.85;2.80;;;24.40;99.90;;;;;;5054782;28;20829;-82
2023/07/28 12:38:05;;;;;;;6.07;3.33;;;24.40;99.90;;;;;;5037877;28;20411;-81